KBTR/BTR METAR and TAF weather

Enter ICAO airport designator
Station Type Date Time Source
KBTR METAR 2021/07/30 06:53 UTC NOAA

KBTR 300653Z AUTO 00000KT 7SM CLR 23/23 A3000 RMK AO2 SLP158 T02330233


Station Type Date Time Source
KBTR Decoded METAR 2021/07/30 06:53 UTC NOAA

BATON ROUGE METRO RYAN FIELD, LA, United States (KBTR) 30-32N 91-09W 21M
Jul 30, 2021 - 02:53 AM EDT / 2021.07.30 0653 UTC
Wind: Calm:0
Visibility: 7 mile(s):0
Sky conditions: clear
Temperature: 73.9 F (23.3 C)
Dew Point: 73.9 F (23.3 C)
Relative Humidity: 100%
Pressure (altimeter): 30 in. Hg (1015 hPa)
ob: KBTR 300653Z AUTO 00000KT 7SM CLR 23/23 A3000 RMK AO2 SLP158 T02330233
cycle: 7

Station Type Date Time Source
KBTR TAF 2021/07/30 06:22 UTC NOAA

TAF KBTR 300520Z 3006/3106 00000KT P6SM SCT040 BKN250
FM301800 29004KT P6SM VCTS FEW030CB SCT250
FM310000 VRB03KT P6SM SCT040 BKN250

Example: see airport list